createdAt,value
2017-04-12T00:01:06.319Z,970.73
2017-04-12T00:02:16.589Z,970.73
2017-04-12T00:03:26.861Z,970.71
2017-04-12T00:04:36.807Z,970.72
2017-04-12T00:05:47.076Z,970.68
2017-04-12T00:06:57.334Z,970.64
2017-04-12T00:08:07.280Z,970.59
2017-04-12T00:09:17.225Z,970.5
2017-04-12T00:10:27.497Z,970.5
2017-04-12T00:11:37.755Z,970.46
2017-04-12T00:12:48.019Z,970.5
2017-04-12T00:13:57.961Z,970.45
2017-04-12T00:15:08.230Z,970.46
2017-04-12T00:16:18.495Z,970.42
2017-04-12T00:17:28.751Z,970.34
2017-04-12T00:18:39.006Z,970.34
2017-04-12T00:19:49.262Z,970.33
2017-04-12T00:20:59.523Z,970.3
2017-04-12T00:22:09.789Z,970.32
2017-04-12T00:23:19.741Z,970.25
2017-04-12T00:24:29.725Z,970.3
2017-04-12T00:25:39.980Z,970.26
2017-04-12T00:26:49.926Z,970.25
2017-04-12T00:28:00.190Z,970.23
2017-04-12T00:29:10.450Z,970.19
2017-04-12T00:30:20.394Z,970.21
2017-04-12T00:31:30.651Z,970.15
2017-04-12T00:32:40.910Z,970.11
2017-04-12T00:33:51.177Z,970.06
2017-04-12T00:35:01.436Z,970.06
2017-04-12T00:36:11.691Z,970.05
2017-04-12T00:37:21.956Z,970.04
2017-04-12T00:38:31.903Z,970.01
2017-04-12T00:39:42.164Z,970
2017-04-12T00:40:52.109Z,969.89
2017-04-12T00:42:02.365Z,969.92
2017-04-12T00:43:12.308Z,969.94
2017-04-12T00:44:22.576Z,969.94
2017-04-12T00:45:32.831Z,969.92
2017-04-12T00:46:43.087Z,969.93
2017-04-12T00:47:53.342Z,969.89
2017-04-12T00:49:03.611Z,969.8
2017-04-12T00:50:13.887Z,969.9
2017-04-12T00:51:24.147Z,969.85
2017-04-12T00:52:34.406Z,969.83
2017-04-12T00:53:44.352Z,969.87
2017-04-12T00:54:54.356Z,969.84
2017-04-12T00:56:03.360Z,969.77
2017-04-12T00:57:12.984Z,969.77
2017-04-12T00:58:22.928Z,969.72
2017-04-12T00:59:33.191Z,969.66
2017-04-12T01:00:43.450Z,969.58
2017-04-12T01:01:53.713Z,969.52
2017-04-12T01:03:03.967Z,969.52
2017-04-12T01:04:14.225Z,969.51
2017-04-12T01:05:24.484Z,969.41
2017-04-12T01:06:34.742Z,969.4
2017-04-12T01:07:44.997Z,969.32
2017-04-12T01:08:55.252Z,969.28
2017-04-12T01:10:05.514Z,969.24
2017-04-12T01:11:15.462Z,969.23
2017-04-12T01:12:25.716Z,969.21
2017-04-12T01:13:35.973Z,969.2
2017-04-12T01:14:46.232Z,969.12
2017-04-12T01:15:56.490Z,969.17
2017-04-12T01:17:06.768Z,969.12
2017-04-12T01:18:17.031Z,969.17
2017-04-12T01:19:26.977Z,969.1
2017-04-12T01:20:37.235Z,969.12
2017-04-12T01:21:47.180Z,969.12
2017-04-12T01:22:57.136Z,969.08
2017-04-12T01:24:07.398Z,969.1
2017-04-12T01:25:17.661Z,969.08
2017-04-12T01:26:27.912Z,969.04
2017-04-12T01:27:38.167Z,969.04
2017-04-12T01:28:48.114Z,969.05
2017-04-12T01:29:58.378Z,968.99
2017-04-12T01:31:08.633Z,969.01
2017-04-12T01:32:18.894Z,968.97
2017-04-12T01:33:29.148Z,968.94
2017-04-12T01:34:39.404Z,968.92
2017-04-12T01:35:49.388Z,968.89
2017-04-12T01:36:59.648Z,968.87
2017-04-12T01:38:09.909Z,968.86
2017-04-12T01:39:20.167Z,968.87
2017-04-12T01:40:30.425Z,968.85
2017-04-12T01:41:40.363Z,968.88
2017-04-12T01:42:50.616Z,968.88
2017-04-12T01:44:00.872Z,968.85
2017-04-12T01:45:10.847Z,968.96
2017-04-12T01:46:20.790Z,968.92
2017-04-12T01:47:31.049Z,968.92
2017-04-12T01:48:41.303Z,968.86
2017-04-12T01:49:51.242Z,968.88
2017-04-12T01:51:01.498Z,968.87
2017-04-12T01:52:11.750Z,968.87
2017-04-12T01:53:22.012Z,968.82
2017-04-12T01:54:32.267Z,968.82
2017-04-12T01:55:42.521Z,968.78
2017-04-12T01:56:52.773Z,968.78
2017-04-12T01:58:03.033Z,968.8
2017-04-12T01:59:13.293Z,968.78
2017-04-12T02:00:23.554Z,968.81
2017-04-12T02:01:33.812Z,968.83
2017-04-12T02:02:44.081Z,968.85
2017-04-12T02:03:54.337Z,968.8
2017-04-12T02:05:04.277Z,968.76
2017-04-12T02:06:14.536Z,968.76
2017-04-12T02:07:24.793Z,968.78
2017-04-12T02:08:35.056Z,968.75
2017-04-12T02:09:45.316Z,968.71
2017-04-12T02:10:55.574Z,968.77
2017-04-12T02:12:05.515Z,968.77
2017-04-12T02:13:15.463Z,968.77
2017-04-12T02:14:25.722Z,968.75
2017-04-12T02:15:35.664Z,968.78
2017-04-12T02:16:45.924Z,968.75
2017-04-12T02:17:56.187Z,968.73
2017-04-12T02:19:06.491Z,968.72
2017-04-12T02:20:16.745Z,968.69
2017-04-12T02:21:27.011Z,968.68
2017-04-12T02:22:37.286Z,968.69
2017-04-12T02:23:47.537Z,968.63
2017-04-12T02:24:57.796Z,968.61
2017-04-12T02:26:08.052Z,968.63
2017-04-12T02:27:18.307Z,968.58
2017-04-12T02:28:28.566Z,968.59
2017-04-12T02:29:38.508Z,968.57
2017-04-12T02:30:48.767Z,968.59
2017-04-12T02:31:59.028Z,968.56
2017-04-12T02:33:09.300Z,968.58
2017-04-12T02:34:19.243Z,968.52
2017-04-12T02:35:29.190Z,968.5
2017-04-12T02:36:39.444Z,968.43
2017-04-12T02:37:49.704Z,968.45
2017-04-12T02:38:59.977Z,968.38
2017-04-12T02:40:10.239Z,968.34
2017-04-12T02:41:20.498Z,968.35
2017-04-12T02:42:30.757Z,968.32
2017-04-12T02:43:41.031Z,968.27
2017-04-12T02:44:51.290Z,968.31
2017-04-12T02:46:01.557Z,968.3
2017-04-12T02:47:11.812Z,968.23
2017-04-12T02:48:22.070Z,968.24
2017-04-12T02:49:32.332Z,968.21
2017-04-12T02:50:42.282Z,968.25
2017-04-12T02:51:52.232Z,968.26
2017-04-12T02:53:02.493Z,968.24
2017-04-12T02:54:12.750Z,968.26
2017-04-12T02:55:23.001Z,968.28
2017-04-12T02:56:33.262Z,968.28
2017-04-12T02:57:43.520Z,968.24
2017-04-12T02:58:53.151Z,968.24
2017-04-12T03:00:03.403Z,968.18
2017-04-12T03:01:13.035Z,968.17
2017-04-12T03:02:22.973Z,968.13
2017-04-12T03:03:33.229Z,968.13
2017-04-12T03:04:43.495Z,968.13
2017-04-12T03:05:53.746Z,968.1
2017-04-12T03:07:04.005Z,968.06
2017-04-12T03:08:13.945Z,968.04
2017-04-12T03:09:24.207Z,968.01
2017-04-12T03:10:34.462Z,967.99
2017-04-12T03:11:44.722Z,967.98
2017-04-12T03:12:54.977Z,967.95
2017-04-12T03:14:05.248Z,967.95
2017-04-12T03:15:15.507Z,967.96
2017-04-12T03:16:25.762Z,967.98
2017-04-12T03:17:36.027Z,967.99
2017-04-12T03:18:46.292Z,967.96
2017-04-12T03:19:56.557Z,968.01
2017-04-12T03:21:06.816Z,967.99
2017-04-12T03:22:17.133Z,967.97
2017-04-12T03:23:27.394Z,967.95
2017-04-12T03:24:37.649Z,967.89
2017-04-12T03:25:47.909Z,967.93
2017-04-12T03:26:58.211Z,967.91
2017-04-12T03:28:08.507Z,967.88
2017-04-12T03:29:18.770Z,967.86
2017-04-12T03:30:29.034Z,967.85
2017-04-12T03:31:39.288Z,967.83
2017-04-12T03:32:48.916Z,967.78
2017-04-12T03:33:59.169Z,967.77
2017-04-12T03:35:09.106Z,967.73
2017-04-12T03:36:19.357Z,967.77
2017-04-12T03:37:29.619Z,967.73
2017-04-12T03:38:39.867Z,967.71
2017-04-12T03:39:50.120Z,967.69
2017-04-12T03:41:00.372Z,967.69
2017-04-12T03:42:10.630Z,967.67
2017-04-12T03:43:20.933Z,967.67
2017-04-12T03:44:31.198Z,967.68
2017-04-12T03:45:41.469Z,967.69
2017-04-12T03:46:53.724Z,967.65
2017-04-12T03:48:03.667Z,967.66
2017-04-12T03:49:13.934Z,967.65
2017-04-12T03:50:24.198Z,967.64
2017-04-12T03:51:34.451Z,967.63
2017-04-12T03:52:44.711Z,967.61
2017-04-12T03:53:54.973Z,967.59
2017-04-12T03:55:05.230Z,967.56
2017-04-12T03:56:15.483Z,967.57
2017-04-12T03:57:25.738Z,967.57
2017-04-12T03:58:35.998Z,967.55
2017-04-12T03:59:46.264Z,967.52
2017-04-12T04:00:56.526Z,967.51
2017-04-12T04:02:06.792Z,967.5
2017-04-12T04:03:17.046Z,967.48
2017-04-12T04:04:27.300Z,967.51
2017-04-12T04:05:37.251Z,967.5
2017-04-12T04:06:47.505Z,967.5
2017-04-12T04:07:57.762Z,967.48
2017-04-12T04:09:08.022Z,967.49
2017-04-12T04:10:18.274Z,967.47
2017-04-12T04:11:28.530Z,967.43
2017-04-12T04:12:38.783Z,967.43
2017-04-12T04:13:48.724Z,967.45
2017-04-12T04:14:58.969Z,967.42
2017-04-12T04:16:09.223Z,967.4
2017-04-12T04:17:19.159Z,967.4
2017-04-12T04:18:29.093Z,967.39
2017-04-12T04:19:39.342Z,967.4
2017-04-12T04:20:49.598Z,967.36
2017-04-12T04:21:59.853Z,967.39
2017-04-12T04:23:10.113Z,967.39
2017-04-12T04:24:20.381Z,967.35
2017-04-12T04:25:30.647Z,967.35
2017-04-12T04:26:40.903Z,967.33
2017-04-12T04:27:51.157Z,967.3
2017-04-12T04:29:01.420Z,967.32
2017-04-12T04:30:11.684Z,967.35
2017-04-12T04:31:21.635Z,967.32
2017-04-12T04:32:31.899Z,967.32
2017-04-12T04:33:42.155Z,967.32
2017-04-12T04:34:52.411Z,967.29
2017-04-12T04:36:02.667Z,967.29
2017-04-12T04:37:12.294Z,967.27
2017-04-12T04:38:22.553Z,967.27
2017-04-12T04:39:32.806Z,967.27
2017-04-12T04:40:43.061Z,967.29
2017-04-12T04:41:53.316Z,967.27
2017-04-12T04:43:03.261Z,967.3
2017-04-12T04:44:13.518Z,967.29
2017-04-12T04:45:24.028Z,967.28
2017-04-12T04:46:34.315Z,967.28
2017-04-12T04:47:44.259Z,967.23
2017-04-12T04:48:54.519Z,967.24
2017-04-12T04:50:04.465Z,967.23
2017-04-12T04:51:14.411Z,967.23
2017-04-12T04:52:24.368Z,967.22
2017-04-12T04:53:34.621Z,967.24
2017-04-12T04:54:44.881Z,967.28
2017-04-12T04:55:55.143Z,967.27
2017-04-12T04:57:05.400Z,967.31
2017-04-12T04:58:15.659Z,967.34
2017-04-12T04:59:25.921Z,967.35
2017-04-12T05:00:36.178Z,967.32
2017-04-12T05:01:46.120Z,967.38
2017-04-12T05:02:56.387Z,967.34
2017-04-12T05:04:06.647Z,967.37
2017-04-12T05:05:16.901Z,967.32
2017-04-12T05:06:27.151Z,967.35
2017-04-12T05:07:37.409Z,967.36
2017-04-12T05:08:47.663Z,967.36
2017-04-12T05:09:57.614Z,967.36
2017-04-12T05:11:07.876Z,967.36
2017-04-12T05:12:17.824Z,967.35
2017-04-12T05:13:28.081Z,967.32
2017-04-12T05:14:38.340Z,967.31
2017-04-12T05:15:48.285Z,967.28
2017-04-12T05:16:58.544Z,967.32
2017-04-12T05:18:08.856Z,967.33
2017-04-12T05:19:19.109Z,967.31
2017-04-12T05:20:29.061Z,967.31
2017-04-12T05:21:39.316Z,967.29
2017-04-12T05:22:49.571Z,967.27
2017-04-12T05:23:59.513Z,967.25
2017-04-12T05:25:09.765Z,967.23
2017-04-12T05:26:19.703Z,967.21
2017-04-12T05:27:29.957Z,967.21
2017-04-12T05:28:40.206Z,967.22
2017-04-12T05:29:50.470Z,967.26
2017-04-12T05:31:00.735Z,967.23
2017-04-12T05:32:11.288Z,967.22
2017-04-12T05:33:21.542Z,967.19
2017-04-12T05:34:31.796Z,967.2
2017-04-12T05:35:42.057Z,967.21
2017-04-12T05:36:52.308Z,967.23
2017-04-12T05:38:02.561Z,967.2
2017-04-12T05:39:12.820Z,967.21
2017-04-12T05:40:22.771Z,967.19
2017-04-12T05:41:33.030Z,967.21
2017-04-12T05:42:43.289Z,967.17
2017-04-12T05:43:53.556Z,967.2
2017-04-12T05:45:03.815Z,967.18
2017-04-12T05:46:13.756Z,967.12
2017-04-12T05:47:24.012Z,967.12
2017-04-12T05:48:34.269Z,967.17
2017-04-12T05:49:44.528Z,967.15
2017-04-12T05:50:54.789Z,967.17
2017-04-12T05:52:05.055Z,967.17
2017-04-12T05:53:14.994Z,967.19
2017-04-12T05:54:25.245Z,967.17
2017-04-12T05:55:35.506Z,967.2
2017-04-12T05:56:45.780Z,967.16
2017-04-12T05:57:55.725Z,967.15
2017-04-12T05:59:05.669Z,967.16
2017-04-12T06:00:15.931Z,967.19
2017-04-12T06:01:26.186Z,967.16
2017-04-12T06:02:36.130Z,967.19
2017-04-12T06:03:46.440Z,967.17
2017-04-12T06:04:56.696Z,967.15
2017-04-12T06:06:06.949Z,967.19
2017-04-12T06:07:17.205Z,967.14
2017-04-12T06:08:27.458Z,967.16
2017-04-12T06:09:37.724Z,967.15
2017-04-12T06:10:47.978Z,967.2
2017-04-12T06:11:58.234Z,967.16
2017-04-12T06:13:08.492Z,967.13
2017-04-12T06:14:18.759Z,967.17
2017-04-12T06:15:29.019Z,967.19
2017-04-12T06:16:39.277Z,967.19
2017-04-12T06:17:49.539Z,967.18
2017-04-12T06:18:59.794Z,967.16
2017-04-12T06:20:10.055Z,967.16
2017-04-12T06:21:20.310Z,967.18
2017-04-12T06:22:30.573Z,967.13
2017-04-12T06:23:40.832Z,967.16
2017-04-12T06:24:51.095Z,967.15
2017-04-12T06:26:01.347Z,967.15
2017-04-12T06:27:11.297Z,967.13
2017-04-12T06:28:21.559Z,967.1
2017-04-12T06:29:31.502Z,967.1
2017-04-12T06:30:41.752Z,967.09
2017-04-12T06:31:52.010Z,967.08
2017-04-12T06:33:02.289Z,967.11
2017-04-12T06:34:12.544Z,967.11
2017-04-12T06:35:22.805Z,967.12
2017-04-12T06:36:32.748Z,967.12
2017-04-12T06:37:43.005Z,967.1
2017-04-12T06:38:53.267Z,967.09
2017-04-12T06:40:03.527Z,967.09
2017-04-12T06:41:13.470Z,967.06
2017-04-12T06:42:23.099Z,967.09
2017-04-12T06:43:33.360Z,967.05
2017-04-12T06:44:43.297Z,967.05
2017-04-12T06:45:53.551Z,967.06
2017-04-12T06:47:03.804Z,967.04
2017-04-12T06:48:14.064Z,967.06
2017-04-12T06:49:24.331Z,967.06
2017-04-12T06:50:34.585Z,967.05
2017-04-12T06:51:44.843Z,967.06
2017-04-12T06:52:55.103Z,967.07
2017-04-12T06:54:05.368Z,967.08
2017-04-12T06:55:15.628Z,967.05
2017-04-12T06:56:25.887Z,967.01
2017-04-12T06:57:36.163Z,967
2017-04-12T06:58:46.423Z,967.01
2017-04-12T06:59:56.680Z,967.01
2017-04-12T07:01:06.311Z,966.99
2017-04-12T07:02:16.258Z,966.99
2017-04-12T07:03:26.511Z,966.95
2017-04-12T07:04:36.769Z,966.97
2017-04-12T07:05:47.030Z,966.99
2017-04-12T07:06:57.287Z,966.98
2017-04-12T07:08:07.561Z,966.94
2017-04-12T07:09:17.820Z,966.94
2017-04-12T07:10:28.102Z,966.96
2017-04-12T07:11:38.353Z,966.93
2017-04-12T07:12:48.612Z,966.96
2017-04-12T07:13:58.871Z,967.02
2017-04-12T07:15:08.817Z,967.05
2017-04-12T07:16:18.765Z,967.05
2017-04-12T07:17:29.023Z,967.1
2017-04-12T07:18:39.284Z,967.14
2017-04-12T07:19:49.537Z,967.16
2017-04-12T07:20:59.800Z,967.16
2017-04-12T07:22:10.058Z,967.12
2017-04-12T07:23:19.995Z,967.2
2017-04-12T07:24:30.249Z,967.13
2017-04-12T07:25:39.872Z,967.18
2017-04-12T07:26:50.121Z,967.18
2017-04-12T07:28:00.375Z,967.18
2017-04-12T07:29:10.631Z,967.23
2017-04-12T07:30:20.566Z,967.2
2017-04-12T07:31:30.816Z,967.2
2017-04-12T07:32:40.452Z,967.21
2017-04-12T07:33:50.712Z,967.17
2017-04-12T07:35:00.963Z,967.17
2017-04-12T07:36:11.227Z,967.24
2017-04-12T07:37:20.539Z,967.2
2017-04-12T07:38:30.482Z,967.22
2017-04-12T07:39:40.114Z,967.23
2017-04-12T07:40:50.380Z,967.23
2017-04-12T07:42:00.005Z,967.16
2017-04-12T07:43:09.635Z,967.19
2017-04-12T07:44:19.904Z,967.22
2017-04-12T07:45:29.531Z,967.19
2017-04-12T07:46:39.163Z,967.16
2017-04-12T07:47:49.111Z,967.17
2017-04-12T07:48:58.430Z,967.17
2017-04-12T07:50:08.385Z,967.18
2017-04-12T07:51:18.010Z,967.15
2017-04-12T07:52:28.266Z,967.14
2017-04-12T07:53:38.220Z,967.15
2017-04-12T07:54:48.165Z,967.14
2017-04-12T07:55:58.107Z,967.19
2017-04-12T07:57:08.365Z,967.19
2017-04-12T07:58:17.994Z,967.14
2017-04-12T07:59:27.311Z,967.15
2017-04-12T08:00:37.255Z,967.2
2017-04-12T08:01:47.192Z,967.16
2017-04-12T08:02:57.487Z,967.15
2017-04-12T08:04:07.747Z,967.16
2017-04-12T08:05:17.710Z,967.21
2017-04-12T08:06:27.975Z,967.23
2017-04-12T08:07:38.241Z,967.2
2017-04-12T08:08:48.184Z,967.18
2017-04-12T08:09:58.123Z,967.19
2017-04-12T08:11:07.751Z,967.25
2017-04-12T08:12:17.702Z,967.27
2017-04-12T08:13:27.364Z,967.23
2017-04-12T08:14:37.630Z,967.19
2017-04-12T08:15:47.573Z,967.25
2017-04-12T08:16:57.832Z,967.23
2017-04-12T08:18:07.774Z,967.27
2017-04-12T08:19:17.407Z,967.24
2017-04-12T08:20:27.661Z,967.25
2017-04-12T08:21:37.604Z,967.25
2017-04-12T08:22:47.871Z,967.24
2017-04-12T08:23:58.127Z,967.3
2017-04-12T08:25:08.384Z,967.3
2017-04-12T08:26:18.649Z,967.32
2017-04-12T08:27:28.906Z,967.3
2017-04-12T08:28:38.856Z,967.29
2017-04-12T08:29:49.115Z,967.3
2017-04-12T08:30:59.066Z,967.32
2017-04-12T08:32:08.382Z,967.33
2017-04-12T08:33:18.020Z,967.34
2017-04-12T08:34:27.966Z,967.33
2017-04-12T08:35:38.224Z,967.34
2017-04-12T08:36:48.483Z,967.37
2017-04-12T08:37:58.115Z,967.39
2017-04-12T08:39:08.060Z,967.32
2017-04-12T08:40:17.688Z,967.36
2017-04-12T08:41:27.944Z,967.35
2017-04-12T08:42:37.578Z,967.37
2017-04-12T08:43:47.845Z,967.36
2017-04-12T08:44:58.108Z,967.32
2017-04-12T08:46:08.370Z,967.36
2017-04-12T08:47:18.318Z,967.34
2017-04-12T08:48:27.955Z,967.4
2017-04-12T08:49:37.587Z,967.36
2017-04-12T08:50:47.258Z,967.43
2017-04-12T08:51:57.515Z,967.42
2017-04-12T08:53:07.779Z,967.47
2017-04-12T08:54:18.041Z,967.47
2017-04-12T08:55:27.983Z,967.5
2017-04-12T08:56:37.923Z,967.51
2017-04-12T08:57:47.555Z,967.48
2017-04-12T08:58:57.826Z,967.44
2017-04-12T09:00:07.765Z,967.41
2017-04-12T09:01:17.711Z,967.35
2017-04-12T09:02:27.972Z,967.31
2017-04-12T09:03:37.922Z,967.39
2017-04-12T09:04:47.857Z,967.38
2017-04-12T09:05:57.176Z,967.47
2017-04-12T09:07:07.436Z,967.46
2017-04-12T09:08:17.690Z,967.47
2017-04-12T09:09:27.319Z,967.53
2017-04-12T09:10:37.266Z,967.48
2017-04-12T09:11:46.584Z,967.46
2017-04-12T09:12:56.842Z,967.44
2017-04-12T09:14:07.103Z,967.42
2017-04-12T09:15:16.736Z,967.41
2017-04-12T09:16:26.689Z,967.39
2017-04-12T09:17:36.636Z,967.45
2017-04-12T09:18:46.909Z,967.5
2017-04-12T09:19:56.851Z,967.48
2017-04-12T09:21:07.114Z,967.48
2017-04-12T09:22:17.057Z,967.58
2017-04-12T09:23:26.693Z,967.62
2017-04-12T09:24:36.643Z,967.63
2017-04-12T09:25:46.603Z,967.61
2017-04-12T09:26:56.238Z,967.47
2017-04-12T09:28:06.188Z,967.45
2017-04-12T09:29:15.825Z,967.39
2017-04-12T09:30:25.773Z,967.39
2017-04-12T09:31:36.043Z,967.4
2017-04-12T09:32:45.692Z,967.37
2017-04-12T09:33:55.954Z,967.41
2017-04-12T09:35:05.913Z,967.37
2017-04-12T09:36:15.864Z,967.36
2017-04-12T09:37:26.126Z,967.33
2017-04-12T09:38:35.762Z,967.36
2017-04-12T09:39:45.717Z,967.32
2017-04-12T09:40:55.675Z,967.29
2017-04-12T09:42:05.626Z,967.25
2017-04-12T09:43:15.261Z,967.26
2017-04-12T09:44:24.889Z,967.25
2017-04-12T09:45:34.517Z,967.27
2017-04-12T09:46:44.156Z,967.36
2017-04-12T09:47:54.103Z,967.39
2017-04-12T09:49:03.735Z,967.45
2017-04-12T09:50:13.683Z,967.46
2017-04-12T09:51:23.318Z,967.47
2017-04-12T09:52:33.279Z,967.53
2017-04-12T09:53:43.233Z,967.49
2017-04-12T09:54:53.184Z,967.5
2017-04-12T09:56:03.130Z,967.5
2017-04-12T09:57:13.429Z,967.53
2017-04-12T09:58:22.746Z,967.53
2017-04-12T09:59:32.698Z,967.48
2017-04-12T10:00:42.647Z,967.49
2017-04-12T10:01:51.978Z,967.42
2017-04-12T10:03:02.240Z,967.39
2017-04-12T10:04:11.906Z,967.37
2017-04-12T10:05:22.168Z,967.3
2017-04-12T10:06:32.118Z,967.24
2017-04-12T10:07:42.381Z,967.21
2017-04-12T10:08:52.334Z,967.16
2017-04-12T10:10:01.970Z,967.19
2017-04-12T10:11:11.610Z,967.15
2017-04-12T10:12:21.870Z,967.13
2017-04-12T10:13:31.502Z,967.13
2017-04-12T10:14:41.766Z,967.13
2017-04-12T10:15:52.026Z,967.12
2017-04-12T10:17:01.981Z,967.13
2017-04-12T10:18:11.614Z,967.16
2017-04-12T10:19:21.559Z,967.16
2017-04-12T10:20:31.188Z,967.14
2017-04-12T10:21:41.488Z,967.17
2017-04-12T10:22:51.438Z,967.33
2017-04-12T10:24:01.698Z,967.49
2017-04-12T10:25:11.640Z,967.58
2017-04-12T10:26:21.284Z,967.69
2017-04-12T10:27:31.231Z,967.76
2017-04-12T10:28:41.174Z,967.7
2017-04-12T10:29:51.124Z,967.67
2017-04-12T10:31:01.066Z,967.68
2017-04-12T10:32:11.023Z,967.62
2017-04-12T10:33:21.286Z,967.56
2017-04-12T10:34:31.554Z,967.38
2017-04-12T10:35:41.500Z,967.4
2017-04-12T10:36:51.447Z,967.43
2017-04-12T10:38:01.406Z,967.44
2017-04-12T10:39:11.040Z,967.31
2017-04-12T10:40:21.312Z,967.19
2017-04-12T10:41:31.572Z,967.19
2017-04-12T10:42:41.518Z,967.11
2017-04-12T10:43:51.781Z,967.12
2017-04-12T10:45:01.455Z,967.13
2017-04-12T10:46:11.097Z,967.13
2017-04-12T10:47:21.357Z,967.12
2017-04-12T10:48:30.683Z,967.1
2017-04-12T10:49:40.010Z,967.12
2017-04-12T10:50:49.964Z,967.13
2017-04-12T10:52:00.225Z,967.16
2017-04-12T10:53:10.176Z,967.19
2017-04-12T10:54:20.442Z,967.24
2017-04-12T10:55:30.705Z,967.27
2017-04-12T10:56:40.650Z,967.23
2017-04-12T10:57:50.613Z,967.24
2017-04-12T10:59:00.562Z,967.3
2017-04-12T11:00:10.505Z,967.35
2017-04-12T11:01:20.455Z,967.37
2017-04-12T11:02:30.716Z,967.4
2017-04-12T11:03:40.350Z,967.42
2017-04-12T11:04:50.298Z,967.47
2017-04-12T11:06:00.248Z,967.44
2017-04-12T11:07:09.885Z,967.52
2017-04-12T11:08:19.836Z,967.49
2017-04-12T11:09:29.465Z,967.46
2017-04-12T11:10:38.787Z,967.41
2017-04-12T11:11:48.420Z,967.41
2017-04-12T11:12:58.682Z,967.43
2017-04-12T11:14:08.945Z,967.43
2017-04-12T11:15:18.891Z,967.43
2017-04-12T11:16:29.154Z,967.45
2017-04-12T11:17:39.113Z,967.44
2017-04-12T11:18:49.060Z,967.38
2017-04-12T11:19:59.327Z,967.38
2017-04-12T11:21:08.961Z,967.42
2017-04-12T11:22:18.922Z,967.42
2017-04-12T11:23:29.184Z,967.51
2017-04-12T11:24:39.139Z,967.49
2017-04-12T11:25:49.087Z,967.54
2017-04-12T11:26:59.043Z,967.52
2017-04-12T11:29:21.987Z,967.47
2017-04-12T11:30:32.248Z,967.55
2017-04-12T11:31:42.511Z,967.54
2017-04-12T11:32:52.782Z,967.51
2017-04-12T11:34:03.047Z,967.58
2017-04-12T11:35:13.310Z,967.78
2017-04-12T11:36:23.265Z,967.71
2017-04-12T11:37:33.542Z,967.82
2017-04-12T11:38:43.489Z,968.03
2017-04-12T11:39:53.436Z,968.36
2017-04-12T11:41:02.761Z,968.18
2017-04-12T11:42:13.031Z,968.37
2017-04-12T11:43:22.980Z,968.41
2017-04-12T11:44:32.936Z,967.86
2017-04-12T11:45:42.890Z,967.92
2017-04-12T11:46:53.157Z,967.84
2017-04-12T11:48:03.426Z,968.15
2017-04-12T11:49:13.062Z,967.38
2017-04-12T11:50:22.709Z,967.44
2017-04-12T11:51:32.348Z,967.36
2017-04-12T11:52:41.677Z,967.45
2017-04-12T11:53:51.684Z,967.35
2017-04-12T11:55:01.322Z,967.11
2017-04-12T11:56:10.989Z,967.11
2017-04-12T11:57:21.265Z,967.1
2017-04-12T11:58:31.535Z,967.13
2017-04-12T11:59:40.860Z,967.13
2017-04-12T12:00:51.125Z,966.99
2017-04-12T12:02:01.088Z,967.07
2017-04-12T12:03:11.357Z,967.01
2017-04-12T12:04:21.320Z,967.07
2017-04-12T12:05:30.960Z,967.23
2017-04-12T12:06:41.234Z,967.4
2017-04-12T12:07:51.550Z,967.51
2017-04-12T12:09:01.498Z,967.68
2017-04-12T12:10:11.759Z,967.66
2017-04-12T12:11:21.713Z,967.55
2017-04-12T12:12:31.664Z,967.5
2017-04-12T12:13:41.612Z,967.57
2017-04-12T12:14:51.248Z,967.69
2017-04-12T12:16:01.199Z,967.75
2017-04-12T12:17:10.835Z,967.89
2017-04-12T12:18:21.096Z,967.83
2017-04-12T12:19:31.359Z,967.85
2017-04-12T12:20:41.623Z,967.87
2017-04-12T12:21:51.585Z,967.74
2017-04-12T12:23:01.855Z,967.66
2017-04-12T12:24:12.129Z,967.57
2017-04-12T12:25:22.086Z,967.52
2017-04-12T12:26:32.058Z,967.53
2017-04-12T12:27:42.322Z,967.56
2017-04-12T12:28:52.590Z,967.57
2017-04-12T12:30:02.854Z,967.72
2017-04-12T12:31:12.807Z,967.78
2017-04-12T12:32:23.080Z,967.8
2017-04-12T12:33:33.035Z,967.82
2017-04-12T12:34:43.304Z,967.7
2017-04-12T12:35:53.570Z,967.85
2017-04-12T12:37:03.832Z,967.79
2017-04-12T12:38:14.106Z,967.68
2017-04-12T12:39:24.067Z,967.68
2017-04-12T12:40:34.334Z,967.93
2017-04-12T12:41:44.608Z,967.62
2017-04-12T12:42:54.569Z,967.59
2017-04-12T12:44:04.831Z,967.52
2017-04-12T12:45:15.098Z,967.83
2017-04-12T12:46:25.051Z,967.76
2017-04-12T12:47:35.335Z,967.74
2017-04-12T12:48:45.600Z,967.59
2017-04-12T12:49:55.869Z,967.58
2017-04-12T12:51:05.510Z,967.72
2017-04-12T12:52:15.462Z,967.88
2017-04-12T12:53:25.423Z,967.88
2017-04-12T12:54:35.381Z,967.89
2017-04-12T12:55:45.648Z,968
2017-04-12T12:56:55.604Z,968.06
2017-04-12T12:58:05.881Z,968.29
2017-04-12T12:59:16.149Z,968.34
2017-04-12T13:00:26.435Z,967.93
2017-04-12T13:01:36.712Z,968.02
2017-04-12T13:02:46.982Z,967.79
2017-04-12T13:03:57.252Z,967.95
2017-04-12T13:05:07.525Z,967.91
2017-04-12T13:06:17.487Z,967.97
2017-04-12T13:07:27.779Z,968.44
2017-04-12T13:08:37.735Z,968.99
2017-04-12T13:09:48.010Z,968.55
2017-04-12T13:10:58.280Z,968.76
2017-04-12T13:12:08.554Z,968.77
2017-04-12T13:13:18.516Z,968.73
2017-04-12T13:14:28.798Z,969.32
2017-04-12T13:15:39.072Z,969.48
2017-04-12T13:16:49.033Z,969.38
2017-04-12T13:17:59.317Z,968.49
2017-04-12T13:19:09.591Z,968.07
2017-04-12T13:20:19.869Z,968.13
2017-04-12T13:21:30.149Z,968.04
2017-04-12T13:22:40.436Z,967.24
2017-04-12T13:23:50.720Z,966.98
2017-04-12T13:25:00.685Z,966.87
2017-04-12T13:26:10.968Z,967.05
2017-04-12T13:27:20.935Z,967.59
2017-04-12T13:28:31.212Z,967.68
2017-04-12T13:29:40.868Z,967.71
2017-04-12T13:30:51.149Z,967.54
2017-04-12T13:32:01.427Z,967.13
2017-04-12T13:33:11.395Z,967.34
2017-04-12T13:34:21.667Z,967.24
2017-04-12T13:35:31.632Z,967.66
2017-04-12T13:36:41.902Z,967.49
2017-04-12T13:37:52.179Z,967.73
2017-04-12T13:39:02.505Z,967.73
2017-04-12T13:40:12.791Z,967.26
2017-04-12T13:41:22.754Z,967.42
2017-04-12T13:42:33.036Z,967.52
2017-04-12T13:43:43.314Z,967.82
2017-04-12T13:44:53.593Z,968.69
2017-04-12T13:46:03.875Z,967.82
2017-04-12T13:47:14.152Z,968.07
2017-04-12T13:48:24.112Z,968.6
2017-04-12T13:49:34.071Z,968.83
2017-04-12T13:50:44.348Z,968.75
2017-04-12T13:51:54.654Z,967.96
2017-04-12T13:53:04.939Z,967.68
2017-04-12T13:54:15.220Z,967.75
2017-04-12T13:55:25.504Z,968.09
2017-04-12T13:56:35.786Z,968.34
2017-04-12T13:57:46.073Z,967.38
2017-04-12T13:58:56.353Z,967.26
2017-04-12T14:00:06.629Z,967.31
2017-04-12T14:01:16.902Z,967.34
2017-04-12T14:02:26.863Z,967.26
2017-04-12T14:03:37.139Z,967.14
2017-04-12T14:04:47.419Z,967.12
2017-04-12T14:05:57.698Z,967.22
2017-04-12T14:07:08.026Z,967.19
2017-04-12T14:08:17.988Z,967.34
2017-04-12T14:09:28.261Z,967.3
2017-04-12T14:10:38.530Z,967.31
2017-04-12T14:11:48.813Z,967.26
2017-04-12T14:12:59.083Z,967.22
2017-04-12T14:14:09.353Z,967.28
2017-04-12T14:15:19.640Z,967.26
2017-04-12T14:16:29.919Z,967.24
2017-04-12T14:17:40.190Z,967.21
2017-04-12T14:18:50.465Z,967.33
2017-04-12T14:20:00.745Z,967.3
2017-04-12T14:21:11.022Z,967.32
2017-04-12T14:22:21.294Z,967.36
2017-04-12T14:23:31.579Z,967.25
2017-04-12T14:24:41.223Z,967.18
2017-04-12T14:25:51.186Z,967.24
2017-04-12T14:27:01.141Z,967.24
2017-04-12T14:28:11.099Z,967.2
2017-04-12T14:29:21.368Z,967.16
2017-04-12T14:30:31.638Z,967.14
2017-04-12T14:31:41.912Z,967.17
2017-04-12T14:32:52.185Z,967.18
2017-04-12T14:34:02.142Z,967.19
2017-04-12T14:35:12.406Z,967.18
2017-04-12T14:36:22.679Z,967.15
2017-04-12T14:37:32.961Z,967.14
2017-04-12T14:38:43.231Z,967.12